Terminal Aerodrome Forecast
Issued by NWS

Home | Current Version | Previous Version | Text Only | Print | Product List | Glossary On
Versions: 1 2 3 4 5 6 7 8 9 10 11 12 13 14 15
000
FTUS41 KRNK 161730
TAFLWB
TAF
KLWB 161730Z 1618/1718 VRB03KT P6SM -SN OVC050
     FM162200 26003KT 5SM -SN OVC030
      TEMPO 1622/1701 2SM -SN OVC025
     FM170100 28003KT 4SM -SN SCT003 OVC015
      TEMPO 1701/1704 2SM -SN OVC008
     FM170700 32005KT P6SM -SN OVC025
     FM171200 30006KT P6SM OVC050=

USA.gov is the U.S. government's official web portal to all federal, state and local government web resources and services.